sensor_id;sensor_type;location;lat;lon;timestamp;pressure;altitude;pressure_sealevel;temperature;humidity
17254;BME280;32542;52.832;13.816;2023-06-26T00:02:08;101552.31;;;24.93;58.17
17254;BME280;32542;52.832;13.816;2023-06-26T00:05:11;101550.56;;;24.92;58.37
17254;BME280;32542;52.832;13.816;2023-06-26T00:08:16;101543.47;;;24.91;58.12
17254;BME280;32542;52.832;13.816;2023-06-26T00:11:19;101541.72;;;24.90;58.23
17254;BME280;32542;52.832;13.816;2023-06-26T00:14:22;101542.59;;;24.91;58.28
17254;BME280;32542;52.832;13.816;2023-06-26T00:17:25;101547.97;;;24.91;58.29
17254;BME280;32542;52.832;13.816;2023-06-26T00:20:28;101543.56;;;24.90;57.95
17254;BME280;32542;52.832;13.816;2023-06-26T00:23:32;101541.72;;;24.90;58.23
17254;BME280;32542;52.832;13.816;2023-06-26T00:26:41;101537.34;;;24.89;58.07
17254;BME280;32542;52.832;13.816;2023-06-26T00:29:43;101536.38;;;24.90;58.15
17254;BME280;32542;52.832;13.816;2023-06-26T00:32:46;101542.59;;;24.91;57.99
17254;BME280;32542;52.832;13.816;2023-06-26T00:35:49;101540.88;;;24.90;58.06
17254;BME280;32542;52.832;13.816;2023-06-26T00:38:54;101531.00;;;24.90;58.06
17254;BME280;32542;52.832;13.816;2023-06-26T00:41:56;101524.81;;;24.90;58.13
17254;BME280;32542;52.832;13.816;2023-06-26T00:44:59;101518.56;;;24.89;58.15
17254;BME280;32542;52.832;13.816;2023-06-26T00:48:03;101530.22;;;24.88;57.99
17254;BME280;32542;52.832;13.816;2023-06-26T00:51:06;101523.06;;;24.89;58.01
17254;BME280;32542;52.832;13.816;2023-06-26T00:54:11;101523.94;;;24.89;57.95
17254;BME280;32542;52.832;13.816;2023-06-26T00:57:14;101522.19;;;24.88;57.88
17254;BME280;32542;52.832;13.816;2023-06-26T01:00:17;101525.84;;;24.87;58.03
17254;BME280;32542;52.832;13.816;2023-06-26T01:03:20;101526.72;;;24.88;57.81
17254;BME280;32542;52.832;13.816;2023-06-26T01:06:24;101521.34;;;24.88;57.92
17254;BME280;32542;52.832;13.816;2023-06-26T01:09:32;101522.19;;;24.88;57.63
17254;BME280;32542;52.832;13.816;2023-06-26T01:12:35;101515.13;;;24.87;57.79
17254;BME280;32542;52.832;13.816;2023-06-26T01:15:41;101516.84;;;24.88;57.90
17254;BME280;32542;52.832;13.816;2023-06-26T01:18:44;101515.13;;;24.87;57.93
17254;BME280;32542;52.832;13.816;2023-06-26T01:21:48;101512.50;;;24.86;57.74
17254;BME280;32542;52.832;13.816;2023-06-26T01:25:03;101503.63;;;24.85;57.95
17254;BME280;32542;52.832;13.816;2023-06-26T01:28:14;101506.28;;;24.85;57.65
17254;BME280;32542;52.832;13.816;2023-06-26T01:31:19;101503.63;;;24.85;57.83
17254;BME280;32542;52.832;13.816;2023-06-26T01:34:22;101500.94;;;24.85;57.87
17254;BME280;32542;52.832;13.816;2023-06-26T01:37:25;101494.69;;;24.85;57.68
17254;BME280;32542;52.832;13.816;2023-06-26T01:40:28;101494.69;;;24.85;57.90
17254;BME280;32542;52.832;13.816;2023-06-26T01:43:38;101493.81;;;24.84;57.89
17254;BME280;32542;52.832;13.816;2023-06-26T01:46:49;101495.63;;;24.84;57.68
17254;BME280;32542;52.832;13.816;2023-06-26T01:50:00;101486.75;;;24.83;57.91
17254;BME280;32542;52.832;13.816;2023-06-26T01:53:10;101488.66;;;24.81;57.78
17254;BME280;32542;52.832;13.816;2023-06-26T01:56:16;101477.06;;;24.81;57.77
17254;BME280;32542;52.832;13.816;2023-06-26T01:59:23;101477.94;;;24.81;57.71
17254;BME280;32542;52.832;13.816;2023-06-26T02:02:28;101472.59;;;24.81;57.87
17254;BME280;32542;52.832;13.816;2023-06-26T02:05:32;101467.38;;;24.78;57.71
17254;BME280;32542;52.832;13.816;2023-06-26T02:08:35;101473.66;;;24.77;57.90
17254;BME280;32542;52.832;13.816;2023-06-26T02:11:38;101470.97;;;24.77;57.69
17254;BME280;32542;52.832;13.816;2023-06-26T02:14:42;101467.38;;;24.78;57.89
17254;BME280;32542;52.832;13.816;2023-06-26T02:17:45;101459.34;;;24.78;57.67
17254;BME280;32542;52.832;13.816;2023-06-26T02:20:50;101451.28;;;24.78;57.56
17254;BME280;32542;52.832;13.816;2023-06-26T02:23:52;101461.13;;;24.77;57.63
17254;BME280;32542;52.832;13.816;2023-06-26T02:26:56;101460.25;;;24.77;57.64
17254;BME280;32542;52.832;13.816;2023-06-26T02:30:00;101462.94;;;24.77;57.72
17254;BME280;32542;52.832;13.816;2023-06-26T02:33:03;101461.13;;;24.77;57.53
17254;BME280;32542;52.832;13.816;2023-06-26T02:36:06;101457.59;;;24.77;57.47
17254;BME280;32542;52.832;13.816;2023-06-26T02:39:09;101455.88;;;24.76;57.59
17254;BME280;32542;52.832;13.816;2023-06-26T02:42:13;101460.25;;;24.77;57.79
17254;BME280;32542;52.832;13.816;2023-06-26T02:45:18;101454.91;;;24.77;57.60
17254;BME280;32542;52.832;13.816;2023-06-26T02:48:21;101459.44;;;24.76;57.52
17254;BME280;32542;52.832;13.816;2023-06-26T02:51:24;101458.56;;;24.76;57.62
17254;BME280;32542;52.832;13.816;2023-06-26T02:54:29;101457.69;;;24.75;57.68
17254;BME280;32542;52.832;13.816;2023-06-26T02:57:37;101455.97;;;24.74;57.71
17254;BME280;32542;52.832;13.816;2023-06-26T03:00:41;101451.50;;;24.73;57.81
17254;BME280;32542;52.832;13.816;2023-06-26T03:03:49;101454.19;;;24.73;57.58
17254;BME280;32542;52.832;13.816;2023-06-26T03:06:53;101448.81;;;24.73;57.61
17254;BME280;32542;52.832;13.816;2023-06-26T03:09:56;101439.91;;;24.73;57.52
17254;BME280;32542;52.832;13.816;2023-06-26T03:12:58;101440.88;;;24.72;57.74
17254;BME280;32542;52.832;13.816;2023-06-26T03:16:04;101441.75;;;24.72;57.67
17254;BME280;32542;52.832;13.816;2023-06-26T03:19:07;101431.03;;;24.72;57.56
17254;BME280;32542;52.832;13.816;2023-06-26T03:22:30;101436.41;;;24.72;57.47
17254;BME280;32542;52.832;13.816;2023-06-26T03:25:33;101439.06;;;24.72;57.54
17254;BME280;32542;52.832;13.816;2023-06-26T03:28:54;101438.19;;;24.72;57.53
17254;BME280;32542;52.832;13.816;2023-06-26T03:31:59;101435.53;;;24.72;57.47
17254;BME280;32542;52.832;13.816;2023-06-26T03:35:02;101433.78;;;24.71;57.45
17254;BME280;32542;52.832;13.816;2023-06-26T03:38:08;101433.78;;;24.71;57.72
17254;BME280;32542;52.832;13.816;2023-06-26T03:41:11;101424.81;;;24.72;57.48
17254;BME280;32542;52.832;13.816;2023-06-26T03:44:15;101423.06;;;24.71;57.46
17254;BME280;32542;52.832;13.816;2023-06-26T03:47:23;101423.06;;;24.71;57.44
17254;BME280;32542;52.832;13.816;2023-06-26T03:50:26;101416.00;;;24.70;57.64
17254;BME280;32542;52.832;13.816;2023-06-26T03:53:29;101426.72;;;24.70;57.62
17254;BME280;32542;52.832;13.816;2023-06-26T03:56:31;101421.34;;;24.70;57.54
17254;BME280;32542;52.832;13.816;2023-06-26T03:59:36;101421.34;;;24.70;57.30
17254;BME280;32542;52.832;13.816;2023-06-26T04:02:40;101414.19;;;24.70;57.71
17254;BME280;32542;52.832;13.816;2023-06-26T04:05:45;101415.03;;;24.71;57.59
17254;BME280;32542;52.832;13.816;2023-06-26T04:08:48;101408.88;;;24.69;57.30
17254;BME280;32542;52.832;13.816;2023-06-26T04:11:51;101407.97;;;24.70;57.53
17254;BME280;32542;52.832;13.816;2023-06-26T04:14:54;101402.75;;;24.67;57.70
17254;BME280;32542;52.832;13.816;2023-06-26T04:17:58;101396.53;;;24.66;57.79
17254;BME280;32542;52.832;13.816;2023-06-26T04:21:05;101401.03;;;24.66;57.53
17254;BME280;32542;52.832;13.816;2023-06-26T04:24:09;101401.09;;;24.64;57.72
17254;BME280;32542;52.832;13.816;2023-06-26T04:27:16;101403.78;;;24.64;57.50
17254;BME280;32542;52.832;13.816;2023-06-26T04:30:19;101399.38;;;24.63;57.57
17254;BME280;32542;52.832;13.816;2023-06-26T04:33:24;101404.84;;;24.62;57.49
17254;BME280;32542;52.832;13.816;2023-06-26T04:36:27;101406.63;;;24.61;57.63
17254;BME280;32542;52.832;13.816;2023-06-26T04:39:30;101412.00;;;24.61;57.67
17254;BME280;32542;52.832;13.816;2023-06-26T04:42:33;101411.13;;;24.61;57.71
17254;BME280;32542;52.832;13.816;2023-06-26T04:45:36;101413.72;;;24.62;57.64
17254;BME280;32542;52.832;13.816;2023-06-26T04:48:41;101415.47;;;24.63;57.63
17254;BME280;32542;52.832;13.816;2023-06-26T04:51:46;101416.31;;;24.64;57.57
17254;BME280;32542;52.832;13.816;2023-06-26T04:54:50;101419.84;;;24.64;57.43
17254;BME280;32542;52.832;13.816;2023-06-26T04:57:53;101416.31;;;24.64;57.45
17254;BME280;32542;52.832;13.816;2023-06-26T05:00:56;101410.09;;;24.63;57.47
17254;BME280;32542;52.832;13.816;2023-06-26T05:04:01;101413.66;;;24.64;57.89
17254;BME280;32542;52.832;13.816;2023-06-26T05:07:04;101414.50;;;24.64;57.59
17254;BME280;32542;52.832;13.816;2023-06-26T05:10:08;101401.09;;;24.64;57.50
17254;BME280;32542;52.832;13.816;2023-06-26T05:13:11;101394.91;;;24.64;57.63
17254;BME280;32542;52.832;13.816;2023-06-26T05:16:16;101400.25;;;24.64;57.64
17254;BME280;32542;52.832;13.816;2023-06-26T05:19:21;101399.28;;;24.65;57.52
17254;BME280;32542;52.832;13.816;2023-06-26T05:22:24;101401.97;;;24.65;57.60
17254;BME280;32542;52.832;13.816;2023-06-26T05:25:29;101397.50;;;24.65;57.72
17254;BME280;32542;52.832;13.816;2023-06-26T05:28:32;101391.25;;;24.65;57.78
17254;BME280;32542;52.832;13.816;2023-06-26T05:31:40;101390.31;;;24.66;57.63
17254;BME280;32542;52.832;13.816;2023-06-26T05:34:47;101396.63;;;24.65;57.93
17254;BME280;32542;52.832;13.816;2023-06-26T05:37:51;101389.53;;;24.64;58.00
17254;BME280;32542;52.832;13.816;2023-06-26T05:40:55;101388.66;;;24.63;57.93
17254;BME280;32542;52.832;13.816;2023-06-26T05:43:58;101380.63;;;24.63;57.74
17254;BME280;32542;52.832;13.816;2023-06-26T05:47:01;101381.50;;;24.64;57.72
17254;BME280;32542;52.832;13.816;2023-06-26T05:50:07;101379.75;;;24.63;58.02
17254;BME280;32542;52.832;13.816;2023-06-26T05:53:11;101378.84;;;24.64;57.74
17254;BME280;32542;52.832;13.816;2023-06-26T05:56:14;101369.81;;;24.65;57.73
17254;BME280;32542;52.832;13.816;2023-06-26T05:59:17;101367.16;;;24.65;57.69
17254;BME280;32542;52.832;13.816;2023-06-26T06:02:21;101369.81;;;24.65;57.91
17254;BME280;32542;52.832;13.816;2023-06-26T06:05:25;101366.22;;;24.66;57.95
17254;BME280;32542;52.832;13.816;2023-06-26T06:08:28;101350.16;;;24.66;57.85
17254;BME280;32542;52.832;13.816;2023-06-26T06:11:31;101349.28;;;24.65;57.67
17254;BME280;32542;52.832;13.816;2023-06-26T06:14:34;101343.03;;;24.65;57.88
17254;BME280;32542;52.832;13.816;2023-06-26T06:17:37;101343.91;;;24.65;57.91
17254;BME280;32542;52.832;13.816;2023-06-26T06:20:41;101343.03;;;24.65;57.70
17254;BME280;32542;52.832;13.816;2023-06-26T06:23:44;101342.13;;;24.66;57.78
17254;BME280;32542;52.832;13.816;2023-06-26T06:26:47;101337.69;;;24.65;57.72
17254;BME280;32542;52.832;13.816;2023-06-26T06:29:50;101335.00;;;24.65;57.96
17254;BME280;32542;52.832;13.816;2023-06-26T06:32:53;101335.88;;;24.65;58.37
17254;BME280;32542;52.832;13.816;2023-06-26T06:35:58;101326.03;;;24.66;58.32
17254;BME280;32542;52.832;13.816;2023-06-26T06:39:00;101329.56;;;24.66;58.14
17254;BME280;32542;52.832;13.816;2023-06-26T06:42:04;101326.88;;;24.66;58.06
17254;BME280;32542;52.832;13.816;2023-06-26T06:45:08;101332.19;;;24.68;58.65
17254;BME280;32542;52.832;13.816;2023-06-26T06:48:11;101325.94;;;24.67;58.23
17254;BME280;32542;52.832;13.816;2023-06-26T06:51:15;101323.19;;;24.69;58.38
17254;BME280;32542;52.832;13.816;2023-06-26T06:54:18;101318.78;;;24.68;58.45
17254;BME280;32542;52.832;13.816;2023-06-26T06:57:21;101318.69;;;24.69;58.98
17254;BME280;32542;52.832;13.816;2023-06-26T07:00:25;101320.44;;;24.70;59.21
17254;BME280;32542;52.832;13.816;2023-06-26T07:03:28;101321.22;;;24.72;59.31
17254;BME280;32542;52.832;13.816;2023-06-26T07:06:32;101319.38;;;24.73;59.61
17254;BME280;32542;52.832;13.816;2023-06-26T07:09:36;101320.25;;;24.73;59.40
17254;BME280;32542;52.832;13.816;2023-06-26T07:12:38;101316.56;;;24.76;59.67
17254;BME280;32542;52.832;13.816;2023-06-26T07:15:42;101310.34;;;24.75;59.83
17254;BME280;32542;52.832;13.816;2023-06-26T07:18:45;101312.09;;;24.76;59.52
17254;BME280;32542;52.832;13.816;2023-06-26T07:21:49;101307.50;;;24.78;59.84
17254;BME280;32542;52.832;13.816;2023-06-26T07:24:52;101309.22;;;24.79;59.37
17254;BME280;32542;52.832;13.816;2023-06-26T07:27:55;101305.50;;;24.82;59.42
17254;BME280;32542;52.832;13.816;2023-06-26T07:30:58;101315.28;;;24.83;59.63
17254;BME280;32542;52.832;13.816;2023-06-26T07:34:01;101308.09;;;24.84;59.32
17254;BME280;32542;52.832;13.816;2023-06-26T07:37:06;101300.06;;;24.84;59.32
17254;BME280;32542;52.832;13.816;2023-06-26T07:40:09;101308.03;;;24.85;58.98
17254;BME280;32542;52.832;13.816;2023-06-26T07:43:12;101300.94;;;24.84;58.79
17254;BME280;32542;52.832;13.816;2023-06-26T07:46:15;101294.63;;;24.85;58.69
17254;BME280;32542;52.832;13.816;2023-06-26T07:49:18;101293.66;;;24.86;58.59
17254;BME280;32542;52.832;13.816;2023-06-26T07:52:23;101297.13;;;24.88;58.60
17254;BME280;32542;52.832;13.816;2023-06-26T07:55:26;101289.03;;;24.90;58.03
17254;BME280;32542;52.832;13.816;2023-06-26T07:58:28;101296.09;;;24.91;57.81
17254;BME280;32542;52.832;13.816;2023-06-26T08:01:31;101293.31;;;24.92;57.58
17254;BME280;32542;52.832;13.816;2023-06-26T08:04:34;101286.03;;;24.94;57.71
17254;BME280;32542;52.832;13.816;2023-06-26T08:07:39;101291.25;;;24.97;57.81
17254;BME280;32542;52.832;13.816;2023-06-26T08:10:42;101280.53;;;24.97;57.71
17254;BME280;32542;52.832;13.816;2023-06-26T08:13:45;101284.66;;;25.03;56.88
17254;BME280;32542;52.832;13.816;2023-06-26T08:16:48;101276.72;;;25.01;56.82
17254;BME280;32542;52.832;13.816;2023-06-26T08:19:50;101273.25;;;24.99;56.76
17254;BME280;32542;52.832;13.816;2023-06-26T08:22:55;101269.66;;;25.00;56.89
17254;BME280;32542;52.832;13.816;2023-06-26T08:25:58;101279.41;;;25.01;56.66
17254;BME280;32542;52.832;13.816;2023-06-26T08:29:01;101276.56;;;25.04;56.42
17254;BME280;32542;52.832;13.816;2023-06-26T08:32:13;101269.28;;;25.06;55.76
17254;BME280;32542;52.832;13.816;2023-06-26T08:35:16;101268.31;;;25.07;55.53
17254;BME280;32542;52.832;13.816;2023-06-26T08:38:20;101271.88;;;25.08;55.53
17254;BME280;32542;52.832;13.816;2023-06-26T08:41:23;101258.47;;;25.08;55.62
17254;BME280;32542;52.832;13.816;2023-06-26T08:44:26;101253.00;;;25.09;55.51
17254;BME280;32542;52.832;13.816;2023-06-26T08:47:30;101246.63;;;25.12;54.96
17254;BME280;32542;52.832;13.816;2023-06-26T08:50:38;101249.13;;;25.15;54.81
17254;BME280;32542;52.832;13.816;2023-06-26T08:53:49;101257.06;;;25.16;55.12
17254;BME280;32542;52.832;13.816;2023-06-26T08:56:53;101255.31;;;25.15;55.28
17254;BME280;32542;52.832;13.816;2023-06-26T08:59:56;101253.53;;;25.16;55.05
17254;BME280;32542;52.832;13.816;2023-06-26T09:03:00;101260.63;;;25.17;54.86
17254;BME280;32542;52.832;13.816;2023-06-26T09:06:06;101242.78;;;25.16;54.97
17254;BME280;32542;52.832;13.816;2023-06-26T09:09:10;101246.34;;;25.16;54.96
17254;BME280;32542;52.832;13.816;2023-06-26T09:12:14;101234.75;;;25.16;55.20
17254;BME280;32542;52.832;13.816;2023-06-26T09:15:19;101235.63;;;25.16;55.10
17254;BME280;32542;52.832;13.816;2023-06-26T09:18:23;101229.31;;;25.17;55.04
17254;BME280;32542;52.832;13.816;2023-06-26T09:21:25;101226.72;;;25.16;54.47
17254;BME280;32542;52.832;13.816;2023-06-26T09:24:30;101224.03;;;25.16;54.81
17254;BME280;32542;52.832;13.816;2023-06-26T09:27:33;101224.91;;;25.16;54.51
17254;BME280;32542;52.832;13.816;2023-06-26T09:30:36;101216.88;;;25.16;54.03
17254;BME280;32542;52.832;13.816;2023-06-26T09:33:40;101218.59;;;25.17;53.69
17254;BME280;32542;52.832;13.816;2023-06-26T09:36:44;101213.03;;;25.20;53.36
17254;BME280;32542;52.832;13.816;2023-06-26T09:39:51;101222.72;;;25.23;53.25
17254;BME280;32542;52.832;13.816;2023-06-26T09:43:02;101207.41;;;25.25;53.44
17254;BME280;32542;52.832;13.816;2023-06-26T09:46:06;101209.13;;;25.26;53.12
17254;BME280;32542;52.832;13.816;2023-06-26T09:49:10;101201.94;;;25.26;52.89
17254;BME280;32542;52.832;13.816;2023-06-26T09:52:14;101206.28;;;25.29;52.62
17254;BME280;32542;52.832;13.816;2023-06-26T09:55:19;101207.16;;;25.29;52.42
17254;BME280;32542;52.832;13.816;2023-06-26T09:58:24;101194.50;;;25.31;52.06
17254;BME280;32542;52.832;13.816;2023-06-26T10:01:30;101204.25;;;25.32;51.83
17254;BME280;32542;52.832;13.816;2023-06-26T10:04:34;101195.19;;;25.35;51.82
17254;BME280;32542;52.832;13.816;2023-06-26T10:07:39;101189.81;;;25.35;51.96
17254;BME280;32542;52.832;13.816;2023-06-26T10:10:45;101188.78;;;25.37;52.04
17254;BME280;32542;52.832;13.816;2023-06-26T10:13:51;101181.50;;;25.39;51.63
17254;BME280;32542;52.832;13.816;2023-06-26T10:17:16;101176.94;;;25.41;51.86
17254;BME280;32542;52.832;13.816;2023-06-26T10:20:21;101179.63;;;25.41;51.49
17254;BME280;32542;52.832;13.816;2023-06-26T10:23:25;101176.94;;;25.41;51.27
17254;BME280;32542;52.832;13.816;2023-06-26T10:26:31;101172.50;;;25.40;51.19
17254;BME280;32542;52.832;13.816;2023-06-26T10:29:38;101163.69;;;25.38;51.25
17254;BME280;32542;52.832;13.816;2023-06-26T10:32:42;101159.03;;;25.42;51.24
17254;BME280;32542;52.832;13.816;2023-06-26T10:35:46;101163.25;;;25.46;51.00
17254;BME280;32542;52.832;13.816;2023-06-26T10:38:50;101163.34;;;25.44;51.25
17254;BME280;32542;52.832;13.816;2023-06-26T10:42:08;101145.63;;;25.42;51.27
17254;BME280;32542;52.832;13.816;2023-06-26T10:45:14;101143.84;;;25.41;51.43
17254;BME280;32542;52.832;13.816;2023-06-26T10:48:17;101142.06;;;25.41;50.85
17254;BME280;32542;52.832;13.816;2023-06-26T10:51:20;101135.66;;;25.44;50.62
17254;BME280;32542;52.832;13.816;2023-06-26T10:54:23;101136.31;;;25.47;50.63
17254;BME280;32542;52.832;13.816;2023-06-26T10:57:32;101130.97;;;25.47;50.94
17254;BME280;32542;52.832;13.816;2023-06-26T11:00:35;101133.75;;;25.46;51.10
17254;BME280;32542;52.832;13.816;2023-06-26T11:03:39;101131.16;;;25.44;51.18
17254;BME280;32542;52.832;13.816;2023-06-26T11:06:45;101130.13;;;25.47;51.22
17254;BME280;32542;52.832;13.816;2023-06-26T11:09:57;101116.41;;;25.51;50.78
17254;BME280;32542;52.832;13.816;2023-06-26T11:13:04;101122.63;;;25.52;50.84
17254;BME280;32542;52.832;13.816;2023-06-26T11:16:08;101115.63;;;25.49;51.12
17254;BME280;32542;52.832;13.816;2023-06-26T11:19:13;101111.91;;;25.52;51.05
17254;BME280;32542;52.832;13.816;2023-06-26T11:22:17;101100.31;;;25.51;50.60
17254;BME280;32542;52.832;13.816;2023-06-26T11:25:20;101096.59;;;25.54;50.78
17254;BME280;32542;52.832;13.816;2023-06-26T11:28:24;101093.25;;;25.50;51.20
17254;BME280;32542;52.832;13.816;2023-06-26T11:31:31;101100.13;;;25.54;51.04
17254;BME280;32542;52.832;13.816;2023-06-26T11:34:35;101091.81;;;25.59;50.33
17254;BME280;32542;52.832;13.816;2023-06-26T11:37:39;101083.38;;;25.65;50.13
17254;BME280;32542;52.832;13.816;2023-06-26T11:40:42;101084.78;;;25.71;49.57
17254;BME280;32542;52.832;13.816;2023-06-26T11:43:47;101083.75;;;25.73;49.64
17254;BME280;32542;52.832;13.816;2023-06-26T11:46:54;101081.63;;;25.78;49.28
17254;BME280;32542;52.832;13.816;2023-06-26T11:49:57;101075.22;;;25.81;48.81
17254;BME280;32542;52.832;13.816;2023-06-26T11:53:01;101067.16;;;25.81;48.73
17254;BME280;32542;52.832;13.816;2023-06-26T11:56:10;101060.81;;;25.82;48.99
17254;BME280;32542;52.832;13.816;2023-06-26T11:59:14;101055.47;;;25.82;49.05
17254;BME280;32542;52.832;13.816;2023-06-26T12:02:17;101049.22;;;25.81;49.18
17254;BME280;32542;52.832;13.816;2023-06-26T12:05:20;101046.47;;;25.83;49.32
17254;BME280;32542;52.832;13.816;2023-06-26T12:08:23;101027.69;;;25.83;49.22
17254;BME280;32542;52.832;13.816;2023-06-26T12:11:27;101028.44;;;25.85;48.87
17254;BME280;32542;52.832;13.816;2023-06-26T12:14:34;101016.31;;;25.92;48.47
17254;BME280;32542;52.832;13.816;2023-06-26T12:17:38;101008.84;;;25.97;48.30
17254;BME280;32542;52.832;13.816;2023-06-26T12:20:41;101006.16;;;25.97;48.42
17254;BME280;32542;52.832;13.816;2023-06-26T12:23:44;101009.59;;;25.99;48.38
17254;BME280;32542;52.832;13.816;2023-06-26T12:26:50;100996.28;;;25.97;48.24
17254;BME280;32542;52.832;13.816;2023-06-26T12:29:56;100986.44;;;25.98;48.46
17254;BME280;32542;52.832;13.816;2023-06-26T12:32:59;100992.56;;;26.00;48.58
17254;BME280;32542;52.832;13.816;2023-06-26T12:36:02;100982.78;;;25.99;48.61
17254;BME280;32542;52.832;13.816;2023-06-26T12:39:09;100983.53;;;26.01;48.41
17254;BME280;32542;52.832;13.816;2023-06-26T12:42:13;100979.66;;;26.05;48.53
17254;BME280;32542;52.832;13.816;2023-06-26T12:45:18;100977.75;;;26.07;48.55
17254;BME280;32542;52.832;13.816;2023-06-26T12:48:36;100972.34;;;26.08;48.55
17254;BME280;32542;52.832;13.816;2023-06-26T12:51:40;100964.91;;;26.12;48.62
17254;BME280;32542;52.832;13.816;2023-06-26T12:54:44;100955.81;;;26.14;48.42
17254;BME280;32542;52.832;13.816;2023-06-26T12:57:48;100948.28;;;26.19;48.52
17254;BME280;32542;52.832;13.816;2023-06-26T13:00:53;100933.78;;;26.22;48.08
17254;BME280;32542;52.832;13.816;2023-06-26T13:03:59;100934.78;;;26.21;47.95
17254;BME280;32542;52.832;13.816;2023-06-26T13:07:02;100930.06;;;26.24;48.13
17254;BME280;32542;52.832;13.816;2023-06-26T13:10:06;100927.25;;;26.26;48.22
17254;BME280;32542;52.832;13.816;2023-06-26T13:13:10;100922.75;;;26.26;48.32
17254;BME280;32542;52.832;13.816;2023-06-26T13:16:14;100926.81;;;26.32;48.30
17254;BME280;32542;52.832;13.816;2023-06-26T13:19:17;100915.69;;;26.38;47.81
17254;BME280;32542;52.832;13.816;2023-06-26T13:22:20;100910.97;;;26.42;47.69
17254;BME280;32542;52.832;13.816;2023-06-26T13:25:23;100902.78;;;26.43;48.00
17254;BME280;32542;52.832;13.816;2023-06-26T13:28:26;100898.47;;;26.41;48.33
17254;BME280;32542;52.832;13.816;2023-06-26T13:31:30;100885.16;;;26.39;48.34
17254;BME280;32542;52.832;13.816;2023-06-26T13:34:34;100888.47;;;26.30;48.50
17254;BME280;32542;52.832;13.816;2023-06-26T13:37:37;100879.16;;;26.23;48.32
17254;BME280;32542;52.832;13.816;2023-06-26T13:40:40;100875.16;;;26.16;48.12
17254;BME280;32542;52.832;13.816;2023-06-26T13:43:42;100882.56;;;26.12;48.03
17254;BME280;32542;52.832;13.816;2023-06-26T13:46:47;100877.50;;;26.08;48.00
17254;BME280;32542;52.832;13.816;2023-06-26T13:49:50;100871.44;;;26.04;48.09
17254;BME280;32542;52.832;13.816;2023-06-26T13:52:53;100875.31;;;26.00;48.20
17254;BME280;32542;52.832;13.816;2023-06-26T13:55:56;100874.47;;;26.00;48.33
17254;BME280;32542;52.832;13.816;2023-06-26T13:58:59;100875.41;;;25.99;48.80
17254;BME280;32542;52.832;13.816;2023-06-26T14:02:04;100878.84;;;26.01;48.86
17254;BME280;32542;52.832;13.816;2023-06-26T14:05:08;100876.91;;;26.03;49.12
17254;BME280;32542;52.832;13.816;2023-06-26T14:08:13;100867.16;;;26.02;49.21
17254;BME280;32542;52.832;13.816;2023-06-26T14:11:16;100853.94;;;25.99;49.30
17254;BME280;32542;52.832;13.816;2023-06-26T14:14:19;100850.50;;;25.97;49.46
17254;BME280;32542;52.832;13.816;2023-06-26T14:17:24;100839.00;;;25.95;49.60
17254;BME280;32542;52.832;13.816;2023-06-26T14:20:28;100844.56;;;25.92;49.83
17254;BME280;32542;52.832;13.816;2023-06-26T14:23:31;100852.63;;;25.92;50.43
17254;BME280;32542;52.832;13.816;2023-06-26T14:26:34;100853.19;;;25.97;50.57
17254;BME280;32542;52.832;13.816;2023-06-26T14:29:38;100853.75;;;26.02;50.60
17254;BME280;32542;52.832;13.816;2023-06-26T14:32:42;100849.88;;;26.06;50.64
17254;BME280;32542;52.832;13.816;2023-06-26T14:35:45;100856.78;;;26.10;50.52
17254;BME280;32542;52.832;13.816;2023-06-26T14:38:48;100862.91;;;26.12;50.90
17254;BME280;32542;52.832;13.816;2023-06-26T14:41:51;100889.66;;;26.13;51.22
17254;BME280;32542;52.832;13.816;2023-06-26T14:44:55;100953.22;;;26.25;51.48
17254;BME280;32542;52.832;13.816;2023-06-26T14:48:00;101010.59;;;26.24;51.47
17254;BME280;32542;52.832;13.816;2023-06-26T14:51:03;101028.00;;;26.19;52.23
17254;BME280;32542;52.832;13.816;2023-06-26T14:54:07;101052.63;;;26.11;53.37
17254;BME280;32542;52.832;13.816;2023-06-26T14:57:11;101061.66;;;25.96;54.14
17254;BME280;32542;52.832;13.816;2023-06-26T15:00:15;101073.09;;;25.86;55.29
17254;BME280;32542;52.832;13.816;2023-06-26T15:03:19;101046.88;;;25.77;55.23
17254;BME280;32542;52.832;13.816;2023-06-26T15:06:22;101054.34;;;25.72;55.07
17254;BME280;32542;52.832;13.816;2023-06-26T15:09:25;101069.66;;;25.70;55.31
17254;BME280;32542;52.832;13.816;2023-06-26T15:12:28;101061.63;;;25.70;55.35
17254;BME280;32542;52.832;13.816;2023-06-26T15:15:31;101068.69;;;25.71;55.44
17254;BME280;32542;52.832;13.816;2023-06-26T15:18:35;101068.63;;;25.72;55.36
17254;BME280;32542;52.832;13.816;2023-06-26T15:21:38;101067.63;;;25.73;56.06
17254;BME280;32542;52.832;13.816;2023-06-26T15:24:43;101090.91;;;25.73;56.32
17254;BME280;32542;52.832;13.816;2023-06-26T15:27:46;101089.09;;;25.73;56.28
17254;BME280;32542;52.832;13.816;2023-06-26T15:30:49;101085.66;;;25.71;56.50
17254;BME280;32542;52.832;13.816;2023-06-26T15:33:54;101102.63;;;25.72;56.45
17254;BME280;32542;52.832;13.816;2023-06-26T15:36:57;101106.25;;;25.71;56.66
17254;BME280;32542;52.832;13.816;2023-06-26T15:40:00;101134.94;;;25.70;56.77
17254;BME280;32542;52.832;13.816;2023-06-26T15:43:02;101150.25;;;25.68;56.58
17254;BME280;32542;52.832;13.816;2023-06-26T15:46:06;101157.44;;;25.68;56.55
17254;BME280;32542;52.832;13.816;2023-06-26T15:49:10;101173.53;;;25.68;56.46
17254;BME280;32542;52.832;13.816;2023-06-26T15:52:13;101176.22;;;25.68;56.58